createdAt,value
2023-02-26T00:01:44.070Z,99133.88
2023-02-26T00:04:28.014Z,99123.75
2023-02-26T00:07:11.967Z,99138.00
2023-02-26T00:09:55.884Z,99121.63
2023-02-26T00:12:41.807Z,99126.41
2023-02-26T00:15:27.009Z,99138.72
2023-02-26T00:18:17.640Z,99141.38
2023-02-26T00:21:01.991Z,99138.50
2023-02-26T00:23:46.182Z,99139.22
2023-02-26T00:26:32.034Z,99140.91
2023-02-26T00:29:18.167Z,99159.44
2023-02-26T00:32:02.680Z,99149.56
2023-02-26T00:34:47.364Z,99163.78
2023-02-26T00:37:52.597Z,99153.66
2023-02-26T00:40:42.636Z,99152.19
2023-02-26T00:43:27.835Z,99135.09
2023-02-26T00:46:22.973Z,99145.44
2023-02-26T00:49:19.377Z,99152.91
2023-02-26T00:52:06.720Z,99134.34
2023-02-26T00:54:50.474Z,99109.06
2023-02-26T00:57:35.876Z,99145.94
2023-02-26T01:00:20.633Z,99147.97
2023-02-26T01:03:06.588Z,99140.59
2023-02-26T01:05:50.947Z,99132.66
2023-02-26T01:08:44.323Z,99129.19
2023-02-26T01:11:28.547Z,99135.56
2023-02-26T01:14:12.819Z,99127.34
2023-02-26T01:17:03.860Z,99125.91
2023-02-26T01:19:54.499Z,99113.13
2023-02-26T01:22:43.744Z,99114.00
2023-02-26T01:25:33.719Z,99099.19
2023-02-26T01:28:18.040Z,99100.88
2023-02-26T01:31:06.952Z,99125.66
2023-02-26T01:33:55.202Z,99083.31
2023-02-26T01:36:45.188Z,99127.75
2023-02-26T01:39:36.106Z,99082.47
2023-02-26T01:42:22.977Z,99117.50
2023-02-26T01:45:13.687Z,99128.13
2023-02-26T01:48:04.744Z,99098.69
2023-02-26T01:50:49.061Z,99124.00
2023-02-26T01:53:35.496Z,99127.97
2023-02-26T01:56:21.308Z,99133.13
2023-02-26T01:59:06.213Z,99111.00
2023-02-26T02:01:50.650Z,99149.06
2023-02-26T02:04:35.439Z,99134.22
2023-02-26T02:07:20.404Z,99143.75
2023-02-26T02:10:06.416Z,99151.72
2023-02-26T02:12:55.752Z,99161.59
2023-02-26T02:16:11.379Z,99165.69
2023-02-26T02:19:02.865Z,99173.44
2023-02-26T02:21:56.022Z,99174.84
2023-02-26T02:24:53.566Z,99163.53
2023-02-26T02:27:48.717Z,99184.72
2023-02-26T02:30:39.886Z,99181.22
2023-02-26T02:33:31.824Z,99175.59
2023-02-26T02:36:21.840Z,99173.41
2023-02-26T02:39:11.277Z,99198.50
2023-02-26T02:41:59.465Z,99136.19
2023-02-26T02:44:48.083Z,99189.56
2023-02-26T02:47:36.764Z,99200.06
2023-02-26T02:50:27.577Z,99184.00
2023-02-26T02:53:16.397Z,99168.22
2023-02-26T02:56:05.915Z,99191.84
2023-02-26T02:58:53.763Z,99204.16
2023-02-26T03:01:39.284Z,99220.44
2023-02-26T03:04:23.254Z,99211.75
2023-02-26T03:07:08.557Z,99217.19
2023-02-26T03:09:52.531Z,99213.47
2023-02-26T03:12:37.369Z,99225.25
2023-02-26T03:15:40.756Z,99219.97
2023-02-26T03:18:37.881Z,99231.03
2023-02-26T03:21:29.389Z,99236.56
2023-02-26T03:24:24.488Z,99243.94
2023-02-26T03:27:15.053Z,99229.34
2023-02-26T03:30:04.194Z,99240.31
2023-02-26T03:33:02.204Z,99206.19
2023-02-26T03:35:51.595Z,99243.94
2023-02-26T03:38:43.725Z,99236.00
2023-02-26T03:41:33.749Z,99254.94
2023-02-26T03:44:24.467Z,99217.81
2023-02-26T03:47:12.515Z,99255.84
2023-02-26T03:50:00.420Z,99262.34
2023-02-26T03:52:48.482Z,99258.72
2023-02-26T03:55:51.270Z,99268.16
2023-02-26T03:59:16.472Z,99265.84
2023-02-26T04:02:05.653Z,99277.09
2023-02-26T04:04:58.263Z,99273.47
2023-02-26T04:07:42.728Z,99283.44
2023-02-26T04:10:30.987Z,99284.56
2023-02-26T04:13:14.772Z,99276.97
2023-02-26T04:16:00.215Z,99286.03
2023-02-26T04:18:44.275Z,99237.66
2023-02-26T04:21:28.146Z,99273.47
2023-02-26T04:24:12.362Z,99285.63
2023-02-26T04:26:56.322Z,99287.19
2023-02-26T04:29:40.589Z,99256.09
2023-02-26T04:32:25.869Z,99294.66
2023-02-26T04:35:10.809Z,99295.75
2023-02-26T04:37:54.899Z,99294.13
2023-02-26T04:40:39.691Z,99299.31
2023-02-26T04:43:26.129Z,99285.84
2023-02-26T04:46:25.650Z,99290.19
2023-02-26T04:49:11.231Z,99137.25
2023-02-26T04:51:58.564Z,99292.38
2023-02-26T04:54:42.846Z,99293.88
2023-02-26T04:57:28.061Z,99293.84
2023-02-26T05:00:13.254Z,99287.72
2023-02-26T05:02:57.502Z,99311.44
2023-02-26T05:05:42.734Z,99320.75
2023-02-26T05:08:27.585Z,99321.31
2023-02-26T05:11:12.307Z,99311.31
2023-02-26T05:13:56.256Z,99329.75
2023-02-26T05:16:40.082Z,99333.50
2023-02-26T05:19:24.357Z,99353.56
2023-02-26T05:22:09.650Z,99355.69
2023-02-26T05:24:53.911Z,99359.81
2023-02-26T05:27:38.235Z,99347.13
2023-02-26T05:30:22.188Z,99349.44
2023-02-26T05:33:06.269Z,99358.34
2023-02-26T05:35:50.290Z,99365.91
2023-02-26T05:38:35.758Z,99365.97
2023-02-26T05:41:19.618Z,99358.22
2023-02-26T05:44:03.697Z,99367.16
2023-02-26T05:46:47.641Z,99377.94
2023-02-26T05:49:31.351Z,99377.19
2023-02-26T05:52:15.320Z,99372.97
2023-02-26T05:55:01.168Z,99378.13
2023-02-26T05:57:45.468Z,99367.88
2023-02-26T06:00:29.383Z,99241.69
2023-02-26T06:03:13.437Z,99361.91
2023-02-26T06:05:57.364Z,99372.47
2023-02-26T06:08:41.271Z,99371.47
2023-02-26T06:11:26.560Z,99369.66
2023-02-26T06:14:10.215Z,99381.84
2023-02-26T06:16:54.054Z,99384.88
2023-02-26T06:19:37.905Z,99381.00
2023-02-26T06:22:21.621Z,99395.44
2023-02-26T06:25:06.443Z,99390.00
2023-02-26T06:27:51.559Z,99400.41
2023-02-26T06:30:35.572Z,99405.22
2023-02-26T06:33:19.553Z,99385.97
2023-02-26T06:36:03.338Z,99394.09
2023-02-26T06:38:47.215Z,99386.41
2023-02-26T06:41:31.123Z,99407.88
2023-02-26T06:44:16.572Z,99409.31
2023-02-26T06:47:00.404Z,99302.91
2023-02-26T06:49:44.319Z,99412.22
2023-02-26T06:52:28.046Z,99414.47
2023-02-26T06:55:12.698Z,99410.59
2023-02-26T06:57:56.995Z,99405.19
2023-02-26T07:00:42.217Z,99409.88
2023-02-26T07:03:26.036Z,99394.78
2023-02-26T07:06:26.368Z,99412.22
2023-02-26T07:09:11.149Z,99423.75
2023-02-26T07:11:54.941Z,99425.09
2023-02-26T07:14:38.731Z,99433.59
2023-02-26T07:17:24.272Z,99439.47
2023-02-26T07:20:10.448Z,99442.41
2023-02-26T07:22:54.261Z,99440.88
2023-02-26T07:25:38.559Z,99433.19
2023-02-26T07:28:22.465Z,99418.69
2023-02-26T07:31:06.693Z,99421.25
2023-02-26T07:33:52.072Z,99434.56
2023-02-26T07:36:36.029Z,99389.28
2023-02-26T07:39:19.831Z,99415.84
2023-02-26T07:42:03.677Z,99414.09
2023-02-26T07:44:47.543Z,99400.84
2023-02-26T07:47:31.659Z,99405.00
2023-02-26T07:50:17.475Z,99405.16
2023-02-26T07:53:01.460Z,99414.56
2023-02-26T07:55:45.479Z,99413.34
2023-02-26T07:58:29.870Z,99417.94
2023-02-26T08:01:14.087Z,99418.75
2023-02-26T08:03:58.335Z,99410.19
2023-02-26T08:06:43.955Z,99379.69
2023-02-26T08:09:28.133Z,99414.31
2023-02-26T08:12:12.442Z,99416.34
2023-02-26T08:14:56.509Z,99418.00
2023-02-26T08:17:40.374Z,99398.13
2023-02-26T08:20:24.440Z,99426.47
2023-02-26T08:23:10.252Z,99407.63
2023-02-26T08:26:01.654Z,99409.28
2023-02-26T08:28:46.439Z,99406.59
2023-02-26T08:31:31.832Z,99414.03
2023-02-26T08:34:15.768Z,99404.50
2023-02-26T08:36:59.754Z,99412.63
2023-02-26T08:39:44.890Z,99412.78
2023-02-26T08:42:28.731Z,99416.19
2023-02-26T08:45:13.116Z,99407.34
2023-02-26T08:47:57.520Z,99402.84
2023-02-26T08:50:41.852Z,99401.84
2023-02-26T08:53:25.718Z,99389.50
2023-02-26T08:56:10.894Z,99386.69
2023-02-26T08:58:54.699Z,99399.91
2023-02-26T09:01:38.729Z,99395.06
2023-02-26T09:04:22.664Z,99393.88
2023-02-26T09:07:06.624Z,99407.59
2023-02-26T09:09:50.525Z,99404.88
2023-02-26T09:12:37.305Z,99407.41
2023-02-26T09:15:21.430Z,99403.16
2023-02-26T09:18:06.368Z,99393.34
2023-02-26T09:20:50.536Z,99398.03
2023-02-26T09:23:34.405Z,99407.00
2023-02-26T09:26:18.128Z,99414.03
2023-02-26T09:29:03.498Z,99387.38
2023-02-26T09:31:47.352Z,99415.75
2023-02-26T09:34:31.261Z,99412.59
2023-02-26T09:37:15.116Z,99418.78
2023-02-26T09:39:59.018Z,99406.41
2023-02-26T09:42:58.738Z,99416.06
2023-02-26T09:45:46.819Z,99423.72
2023-02-26T09:48:32.372Z,99405.78
2023-02-26T09:51:22.576Z,99404.16
2023-02-26T09:54:16.445Z,99393.19
2023-02-26T09:57:02.192Z,99403.28
2023-02-26T09:59:46.259Z,99411.06
2023-02-26T10:02:39.556Z,99408.19
2023-02-26T10:05:33.920Z,99396.31
2023-02-26T10:08:19.986Z,99383.53
2023-02-26T10:11:09.803Z,99385.72
2023-02-26T10:13:59.805Z,99387.72
2023-02-26T10:16:49.095Z,99390.03
2023-02-26T10:19:44.367Z,99382.16
2023-02-26T10:22:34.409Z,99358.00
2023-02-26T10:25:23.331Z,99387.06
2023-02-26T10:28:26.196Z,99390.06
2023-02-26T10:31:19.529Z,99394.94
2023-02-26T10:34:16.543Z,99392.44
2023-02-26T10:37:11.103Z,99389.34
2023-02-26T10:39:58.987Z,99360.06
2023-02-26T10:42:48.084Z,99387.53
2023-02-26T10:45:44.439Z,99377.38
2023-02-26T10:48:52.797Z,99366.56
2023-02-26T10:51:39.475Z,99376.28
2023-02-26T10:54:31.306Z,99372.16
2023-02-26T10:57:20.908Z,99370.47
2023-02-26T11:00:07.286Z,99360.34
2023-02-26T11:02:53.875Z,99345.75
2023-02-26T11:05:37.850Z,99374.75
2023-02-26T11:08:26.996Z,99358.72
2023-02-26T11:11:14.094Z,99375.56
2023-02-26T11:13:58.447Z,99370.63
2023-02-26T11:16:47.421Z,99344.59
2023-02-26T11:19:34.481Z,99353.28
2023-02-26T11:22:18.801Z,99349.00
2023-02-26T11:25:03.840Z,99340.38
2023-02-26T11:27:51.961Z,99319.06
2023-02-26T11:30:39.853Z,99344.41
2023-02-26T11:33:25.562Z,99365.88
2023-02-26T11:36:12.737Z,99372.16
2023-02-26T11:38:59.500Z,99380.69
2023-02-26T11:41:47.053Z,99373.47
2023-02-26T11:44:38.193Z,99374.97
2023-02-26T11:47:26.138Z,99378.00
2023-02-26T11:50:17.261Z,99393.59
2023-02-26T11:53:08.581Z,99376.50
2023-02-26T11:55:55.082Z,99321.03
2023-02-26T11:58:41.368Z,99391.56
2023-02-26T12:01:31.088Z,99396.53
2023-02-26T12:04:21.227Z,99381.25
2023-02-26T12:07:05.206Z,99390.31
2023-02-26T12:09:50.020Z,99334.94
2023-02-26T12:12:50.939Z,99388.53
2023-02-26T12:15:41.015Z,99384.84
2023-02-26T12:18:45.715Z,99382.75
2023-02-26T12:21:57.887Z,99355.47
2023-02-26T12:25:04.494Z,99371.72
2023-02-26T12:28:08.885Z,99384.31
2023-02-26T12:31:19.218Z,99403.34
2023-02-26T12:34:17.249Z,99408.38
2023-02-26T12:37:17.797Z,99412.09
2023-02-26T12:40:12.881Z,99414.06
2023-02-26T12:43:05.474Z,99404.81
2023-02-26T12:45:56.179Z,99408.88
2023-02-26T12:49:07.693Z,99410.06
2023-02-26T12:52:08.393Z,99412.34
2023-02-26T12:55:15.721Z,99382.16
2023-02-26T12:58:14.315Z,99415.34
2023-02-26T13:01:59.635Z,99403.03
2023-02-26T13:05:16.052Z,99400.63
2023-02-26T13:08:25.727Z,99411.59
2023-02-26T13:11:23.251Z,99408.28
2023-02-26T13:14:22.742Z,99402.34
2023-02-26T13:17:11.382Z,99404.28
2023-02-26T13:19:59.168Z,99382.88
2023-02-26T13:22:47.102Z,99392.00
2023-02-26T13:25:40.087Z,99402.69
2023-02-26T13:28:31.849Z,99410.69
2023-02-26T13:31:20.165Z,99406.34
2023-02-26T13:34:11.961Z,99402.69
2023-02-26T13:36:56.211Z,99413.94
2023-02-26T13:39:47.514Z,99417.38
2023-02-26T13:42:43.948Z,99415.63
2023-02-26T13:45:44.849Z,99425.97
2023-02-26T13:48:39.234Z,99436.84
2023-02-26T13:51:32.210Z,99430.50
2023-02-26T13:54:42.749Z,99434.44
2023-02-26T13:57:37.576Z,99428.84
2023-02-26T14:00:29.821Z,99435.56
2023-02-26T14:03:30.862Z,99428.84
2023-02-26T14:06:36.606Z,99400.28
2023-02-26T14:09:46.997Z,99422.31
2023-02-26T14:12:39.037Z,99451.44
2023-02-26T14:15:33.146Z,99435.13
2023-02-26T14:18:32.345Z,99427.94
2023-02-26T14:21:39.769Z,99440.56
2023-02-26T14:24:26.973Z,99434.28
2023-02-26T14:27:34.727Z,99438.47
2023-02-26T14:30:30.774Z,99438.34
2023-02-26T14:33:18.511Z,99447.09
2023-02-26T14:36:03.138Z,99461.84
2023-02-26T14:38:49.701Z,99450.19
2023-02-26T14:41:38.773Z,99471.47
2023-02-26T14:44:27.081Z,99457.75
2023-02-26T14:47:13.836Z,99459.72
2023-02-26T14:50:00.508Z,99463.22
2023-02-26T14:53:18.781Z,99477.41
2023-02-26T14:56:12.503Z,99487.59
2023-02-26T14:59:18.211Z,99475.13
2023-02-26T15:02:16.971Z,99494.72
2023-02-26T15:05:29.294Z,99491.69
2023-02-26T15:08:30.149Z,99489.69
2023-02-26T15:11:34.212Z,99473.00
2023-02-26T15:14:40.143Z,99486.75
2023-02-26T15:17:38.661Z,99491.91
2023-02-26T15:20:34.968Z,99475.72
2023-02-26T15:23:32.660Z,99495.53
2023-02-26T15:26:21.301Z,99463.09
2023-02-26T15:29:08.426Z,99515.78
2023-02-26T15:31:57.463Z,99502.13
2023-02-26T15:34:47.733Z,99525.31
2023-02-26T15:37:33.959Z,99523.44
2023-02-26T15:40:19.338Z,99521.69
2023-02-26T15:43:04.365Z,99518.59
2023-02-26T15:45:50.398Z,99531.25
2023-02-26T15:48:38.607Z,99530.34
2023-02-26T15:51:22.790Z,99537.50
2023-02-26T15:54:08.233Z,99525.03
2023-02-26T15:56:52.766Z,99526.97
2023-02-26T15:59:42.430Z,99509.38
2023-02-26T16:02:29.440Z,99517.94
2023-02-26T16:05:14.768Z,99522.47
2023-02-26T16:07:58.912Z,99513.91
2023-02-26T16:10:45.077Z,99533.41
2023-02-26T16:13:32.373Z,99533.97
2023-02-26T16:16:23.180Z,99541.41
2023-02-26T16:19:08.343Z,99540.53
2023-02-26T16:21:55.618Z,99527.72
2023-02-26T16:24:39.949Z,99519.19
2023-02-26T16:27:28.195Z,99533.50
2023-02-26T16:30:18.906Z,99552.09
2023-02-26T16:33:03.718Z,99552.06
2023-02-26T16:35:50.044Z,99546.75
2023-02-26T16:38:46.083Z,99527.25
2023-02-26T16:41:32.346Z,99548.09
2023-02-26T16:44:42.406Z,99561.03
2023-02-26T16:47:29.480Z,99557.41
2023-02-26T16:50:19.132Z,99559.34
2023-02-26T16:53:09.195Z,99577.03
2023-02-26T16:55:55.882Z,99580.94
2023-02-26T16:58:41.308Z,99587.28
2023-02-26T17:01:26.780Z,99596.31
2023-02-26T17:04:17.198Z,99597.69
2023-02-26T17:07:02.873Z,99595.22
2023-02-26T17:09:50.742Z,99608.13
2023-02-26T17:12:44.866Z,99611.16
2023-02-26T17:15:31.514Z,99619.13
2023-02-26T17:18:17.090Z,99605.09
2023-02-26T17:21:04.366Z,99609.81
2023-02-26T17:23:48.756Z,99607.63
2023-02-26T17:26:32.932Z,99599.63
2023-02-26T17:29:20.859Z,99621.59
2023-02-26T17:32:05.805Z,99631.94
2023-02-26T17:34:52.286Z,99641.88
2023-02-26T17:37:37.260Z,99646.69
2023-02-26T17:40:24.221Z,99645.25
2023-02-26T17:43:10.093Z,99653.84
2023-02-26T17:45:54.129Z,99652.63
2023-02-26T17:48:38.432Z,99617.88
2023-02-26T17:51:24.636Z,99633.31
2023-02-26T17:54:08.424Z,99648.66
2023-02-26T17:56:52.326Z,99658.44
2023-02-26T17:59:36.466Z,99660.47
2023-02-26T18:02:25.536Z,99633.78
2023-02-26T18:05:10.671Z,99663.50
2023-02-26T18:07:56.198Z,99667.69
2023-02-26T18:10:40.397Z,99664.66
2023-02-26T18:13:24.928Z,99637.22
2023-02-26T18:16:16.525Z,99657.84
2023-02-26T18:19:00.804Z,99647.91
2023-02-26T18:21:44.781Z,99677.03
2023-02-26T18:24:32.373Z,99679.19
2023-02-26T18:27:17.772Z,99683.50
2023-02-26T18:30:02.931Z,99678.34
2023-02-26T18:32:47.959Z,99675.22
2023-02-26T18:35:32.889Z,99674.41
2023-02-26T18:38:19.185Z,99666.44
2023-02-26T18:41:04.830Z,99672.22
2023-02-26T18:43:49.094Z,99684.50
2023-02-26T18:46:34.950Z,99683.44
2023-02-26T18:49:21.269Z,99686.63
2023-02-26T18:52:05.701Z,99685.91
2023-02-26T18:54:49.955Z,99694.03
2023-02-26T18:57:35.493Z,99694.97
2023-02-26T19:00:21.580Z,99690.75
2023-02-26T19:03:05.402Z,99697.28
2023-02-26T19:05:57.505Z,99706.47
2023-02-26T19:08:41.872Z,99703.81
2023-02-26T19:11:26.517Z,99674.91
2023-02-26T19:14:12.388Z,99683.38
2023-02-26T19:16:56.651Z,99698.75
2023-02-26T19:19:42.378Z,99685.66
2023-02-26T19:22:26.379Z,99690.97
2023-02-26T19:25:11.308Z,99685.16
2023-02-26T19:27:56.960Z,99703.09
2023-02-26T19:30:42.621Z,99708.66
2023-02-26T19:33:26.556Z,99708.41
2023-02-26T19:36:11.007Z,99718.56
2023-02-26T19:38:55.449Z,99716.03
2023-02-26T19:41:39.568Z,99699.69
2023-02-26T19:44:27.571Z,99705.00
2023-02-26T19:47:13.052Z,99688.53
2023-02-26T19:49:56.786Z,99716.75
2023-02-26T19:52:40.841Z,99716.16
2023-02-26T19:55:24.669Z,99722.78
2023-02-26T19:58:08.796Z,99720.28
2023-02-26T20:00:53.025Z,99718.09
2023-02-26T20:03:38.472Z,99713.50
2023-02-26T20:06:22.905Z,99727.78
2023-02-26T20:09:07.391Z,99694.19
2023-02-26T20:11:51.332Z,99728.06
2023-02-26T20:14:36.850Z,99739.44
2023-02-26T20:17:20.914Z,99733.22
2023-02-26T20:20:07.330Z,99739.06
2023-02-26T20:22:51.270Z,99734.56
2023-02-26T20:25:35.312Z,99734.31
2023-02-26T20:28:19.431Z,99727.53
2023-02-26T20:31:03.291Z,99742.06
2023-02-26T20:33:47.155Z,99754.31
2023-02-26T20:36:32.763Z,99751.41
2023-02-26T20:39:19.089Z,99759.53
2023-02-26T20:42:03.034Z,99765.47
2023-02-26T20:44:46.885Z,99761.13
2023-02-26T20:47:30.940Z,99748.16
2023-02-26T20:50:14.845Z,99753.25
2023-02-26T20:53:00.215Z,99744.53
2023-02-26T20:55:44.140Z,99718.53
2023-02-26T20:58:28.285Z,99735.06
2023-02-26T21:01:12.284Z,99733.66
2023-02-26T21:03:56.226Z,99730.16
2023-02-26T21:06:40.421Z,99741.63
2023-02-26T21:09:25.722Z,99756.88
2023-02-26T21:12:09.653Z,99738.56
2023-02-26T21:14:55.888Z,99736.66
2023-02-26T21:17:40.767Z,99736.69
2023-02-26T21:20:24.572Z,99686.25
2023-02-26T21:23:08.425Z,99744.19
2023-02-26T21:25:53.696Z,99735.97
2023-02-26T21:28:37.495Z,99720.34
2023-02-26T21:31:22.107Z,99722.19
2023-02-26T21:34:29.952Z,99721.09
2023-02-26T21:37:12.240Z,99700.75
2023-02-26T21:39:56.139Z,99724.34
2023-02-26T21:42:41.408Z,99741.50
2023-02-26T21:45:25.265Z,99739.94
2023-02-26T21:48:09.422Z,99745.88
2023-02-26T21:50:56.274Z,99746.13
2023-02-26T21:53:40.177Z,99747.44
2023-02-26T21:56:24.023Z,99742.63
2023-02-26T21:59:09.205Z,99748.50
2023-02-26T22:01:53.994Z,99744.41
2023-02-26T22:04:38.112Z,99751.19
2023-02-26T22:07:21.886Z,99738.97
2023-02-26T22:10:06.939Z,99737.28
2023-02-26T22:12:50.717Z,99742.38
2023-02-26T22:15:35.897Z,99724.47
2023-02-26T22:18:19.709Z,99738.47
2023-02-26T22:21:03.822Z,99739.19
2023-02-26T22:23:47.852Z,99735.56
2023-02-26T22:26:32.097Z,99712.00
2023-02-26T22:29:16.798Z,99713.44
2023-02-26T22:32:03.014Z,99729.28
2023-02-26T22:34:46.831Z,99741.28
2023-02-26T22:37:30.705Z,99731.84
2023-02-26T22:40:15.606Z,99735.34
2023-02-26T22:42:59.455Z,99750.09
2023-02-26T22:45:43.396Z,99750.00
2023-02-26T22:48:28.647Z,99756.13
2023-02-26T22:51:12.474Z,99757.94
2023-02-26T22:53:56.342Z,99754.41
2023-02-26T22:56:40.197Z,99753.94
2023-02-26T22:59:24.163Z,99737.63
2023-02-26T23:02:07.898Z,99731.00
2023-02-26T23:04:53.079Z,99702.81
2023-02-26T23:07:37.271Z,99725.41
2023-02-26T23:10:21.612Z,99734.38
2023-02-26T23:13:05.690Z,99727.22
2023-02-26T23:15:49.562Z,99587.09
2023-02-26T23:18:34.256Z,99746.59
2023-02-26T23:21:19.433Z,99731.25
2023-02-26T23:24:03.425Z,99750.59
2023-02-26T23:26:47.132Z,99745.25
2023-02-26T23:29:30.962Z,99745.28
2023-02-26T23:32:15.669Z,99744.91
2023-02-26T23:34:59.712Z,99762.31
2023-02-26T23:37:44.977Z,99766.28
2023-02-26T23:40:28.968Z,99766.16
2023-02-26T23:43:12.833Z,99768.72
2023-02-26T23:45:56.742Z,99780.34
2023-02-26T23:48:40.691Z,99769.41
2023-02-26T23:51:24.910Z,99776.44
2023-02-26T23:54:10.611Z,99786.88
2023-02-26T23:56:54.316Z,99799.91
2023-02-26T23:59:38.266Z,99784.41
